createdAt,value
2023-01-02T00:01:36.349Z,100872.44
2023-01-02T00:04:04.347Z,100895.56
2023-01-02T00:06:34.529Z,100893.81
2023-01-02T00:09:03.876Z,100894.00
2023-01-02T00:11:31.819Z,100890.53
2023-01-02T00:13:59.721Z,100897.78
2023-01-02T00:16:27.708Z,100895.53
2023-01-02T00:18:55.684Z,100914.94
2023-01-02T00:21:23.617Z,100912.06
2023-01-02T00:23:51.527Z,100912.69
2023-01-02T00:26:20.848Z,100919.63
2023-01-02T00:28:48.755Z,100918.47
2023-01-02T00:31:16.759Z,100915.50
2023-01-02T00:33:44.799Z,100910.38
2023-01-02T00:36:13.341Z,100906.44
2023-01-02T00:38:41.367Z,100930.06
2023-01-02T00:41:09.256Z,100932.72
2023-01-02T00:43:38.521Z,100932.78
2023-01-02T00:46:11.671Z,100939.94
2023-01-02T00:48:40.410Z,100945.19
2023-01-02T00:51:08.403Z,100934.44
2023-01-02T00:53:36.352Z,100945.19
2023-01-02T00:56:04.347Z,100951.41
2023-01-02T00:58:32.319Z,100952.59
2023-01-02T01:01:01.708Z,100954.38
2023-01-02T01:03:30.074Z,100961.56
2023-01-02T01:05:58.011Z,100964.31
2023-01-02T01:08:25.933Z,100969.56
2023-01-02T01:10:53.869Z,100964.16
2023-01-02T01:13:21.788Z,100974.56
2023-01-02T01:15:49.767Z,100978.00
2023-01-02T01:18:19.121Z,100986.03
2023-01-02T01:20:47.661Z,100987.03
2023-01-02T01:23:15.578Z,100998.53
2023-01-02T01:25:43.507Z,101004.09
2023-01-02T01:28:11.402Z,100998.25
2023-01-02T01:30:39.274Z,101004.88
2023-01-02T01:33:07.200Z,101008.63
2023-01-02T01:35:36.458Z,101009.91
2023-01-02T01:38:04.449Z,101019.03
2023-01-02T01:40:38.745Z,101012.28
2023-01-02T01:43:10.463Z,101034.44
2023-01-02T01:45:38.381Z,101039.84
2023-01-02T01:48:06.663Z,101039.94
2023-01-02T01:50:36.508Z,101037.25
2023-01-02T01:53:05.415Z,101042.63
2023-01-02T01:55:34.452Z,101042.63
2023-01-02T01:58:03.898Z,101033.25
2023-01-02T02:00:31.863Z,101053.03
2023-01-02T02:03:02.733Z,101046.75
2023-01-02T02:05:30.973Z,101064.16
2023-01-02T02:08:01.595Z,101063.28
2023-01-02T02:10:29.584Z,101071.22
2023-01-02T02:12:57.460Z,101077.34
2023-01-02T02:15:28.616Z,101076.38
2023-01-02T02:18:00.959Z,101078.25
2023-01-02T02:20:33.335Z,101079.91
2023-01-02T02:23:43.153Z,101080.97
2023-01-02T02:26:38.261Z,101070.84
2023-01-02T02:29:28.893Z,101081.66
2023-01-02T02:31:59.858Z,101093.53
2023-01-02T02:34:29.667Z,101105.34
2023-01-02T02:36:59.313Z,101102.22
2023-01-02T02:39:31.583Z,101114.81
2023-01-02T02:42:02.871Z,101111.53
2023-01-02T02:44:33.912Z,101121.47
2023-01-02T02:47:04.864Z,101123.50
2023-01-02T02:49:40.481Z,101134.03
2023-01-02T02:52:14.056Z,101128.78
2023-01-02T02:54:43.792Z,101122.94
2023-01-02T02:57:12.455Z,101134.31
2023-01-02T02:59:40.383Z,101139.06
2023-01-02T03:02:09.817Z,101145.38
2023-01-02T03:04:38.424Z,101152.66
2023-01-02T03:07:12.932Z,101160.63
2023-01-02T03:09:48.000Z,101159.72
2023-01-02T03:12:21.077Z,101161.59
2023-01-02T03:14:55.579Z,101168.59
2023-01-02T03:17:28.438Z,101167.72
2023-01-02T03:19:58.427Z,101158.13
2023-01-02T03:22:27.643Z,101166.91
2023-01-02T03:24:55.581Z,101170.63
2023-01-02T03:27:24.828Z,101168.09
2023-01-02T03:29:56.682Z,101173.50
2023-01-02T03:32:27.993Z,101169.97
2023-01-02T03:34:55.925Z,101181.38
2023-01-02T03:37:26.143Z,101180.59
2023-01-02T03:39:56.250Z,101184.19
2023-01-02T03:42:26.623Z,101182.56
2023-01-02T03:44:58.144Z,101186.25
2023-01-02T03:47:28.976Z,101200.50
2023-01-02T03:49:58.802Z,101194.44
2023-01-02T03:52:26.755Z,101194.53
2023-01-02T03:54:55.035Z,101193.81
2023-01-02T03:57:25.800Z,101187.94
2023-01-02T03:59:58.132Z,101182.84
2023-01-02T04:02:29.728Z,101202.97
2023-01-02T04:04:58.499Z,101206.53
2023-01-02T04:07:28.503Z,101213.69
2023-01-02T04:09:56.603Z,101220.78
2023-01-02T04:12:24.873Z,101230.50
2023-01-02T04:14:53.653Z,101237.59
2023-01-02T04:17:21.745Z,101236.72
2023-01-02T04:19:51.575Z,101243.84
2023-01-02T04:22:21.721Z,101255.38
2023-01-02T04:24:51.612Z,101244.84
2023-01-02T04:27:21.393Z,101252.06
2023-01-02T04:29:49.302Z,101254.00
2023-01-02T04:32:19.555Z,101264.66
2023-01-02T04:34:47.479Z,101256.66
2023-01-02T04:37:28.991Z,101242.69
2023-01-02T04:39:57.832Z,101264.44
2023-01-02T04:42:25.971Z,101272.28
2023-01-02T04:44:53.909Z,101277.28
2023-01-02T04:47:22.146Z,101266.06
2023-01-02T04:49:50.166Z,101291.44
2023-01-02T04:52:18.089Z,101303.84
2023-01-02T04:54:47.512Z,101299.47
2023-01-02T04:57:15.504Z,101312.75
2023-01-02T04:59:43.430Z,101314.53
2023-01-02T05:02:11.617Z,101314.38
2023-01-02T05:04:39.557Z,101316.94
2023-01-02T05:07:07.566Z,101317.72
2023-01-02T05:09:35.454Z,101322.75
2023-01-02T05:12:05.113Z,101318.25
2023-01-02T05:14:33.014Z,101330.63
2023-01-02T05:17:00.937Z,101332.41
2023-01-02T05:19:28.832Z,101324.50
2023-01-02T05:22:14.129Z,101329.88
2023-01-02T05:24:42.000Z,101330.78
2023-01-02T05:27:11.260Z,101329.16
2023-01-02T05:29:39.185Z,101343.34
2023-01-02T05:32:07.393Z,101348.94
2023-01-02T05:34:35.357Z,101346.59
2023-01-02T05:37:03.280Z,101344.19
2023-01-02T05:39:31.240Z,101340.06
2023-01-02T05:41:59.214Z,101348.19
2023-01-02T05:44:28.514Z,101359.03
2023-01-02T05:46:56.509Z,101362.75
2023-01-02T05:49:24.476Z,101363.75
2023-01-02T05:51:52.383Z,101370.06
2023-01-02T05:54:20.268Z,101365.00
2023-01-02T05:56:48.237Z,101372.13
2023-01-02T05:59:16.517Z,101376.66
2023-01-02T06:01:46.046Z,101359.44
2023-01-02T06:04:19.457Z,101383.94
2023-01-02T06:06:49.552Z,101383.19
2023-01-02T06:09:17.918Z,101386.81
2023-01-02T06:11:45.859Z,101385.16
2023-01-02T06:14:13.778Z,101393.31
2023-01-02T06:16:41.830Z,101389.84
2023-01-02T06:19:11.192Z,101407.53
2023-01-02T06:21:39.073Z,101399.88
2023-01-02T06:24:07.611Z,101420.84
2023-01-02T06:26:35.738Z,101421.78
2023-01-02T06:29:04.130Z,101427.13
2023-01-02T06:31:33.390Z,101428.88
2023-01-02T06:34:02.810Z,101428.81
2023-01-02T06:36:32.945Z,101435.88
2023-01-02T06:39:00.888Z,101444.44
2023-01-02T06:41:28.808Z,101435.63
2023-01-02T06:43:56.715Z,101444.97
2023-01-02T06:46:24.867Z,101460.66
2023-01-02T06:48:52.993Z,101457.94
2023-01-02T06:51:21.692Z,101468.63
2023-01-02T06:53:51.213Z,101466.91
2023-01-02T06:56:20.359Z,101479.34
2023-01-02T06:58:48.290Z,101475.06
2023-01-02T07:01:17.090Z,101437.72
2023-01-02T07:03:45.230Z,101488.44
2023-01-02T07:06:14.969Z,101494.69
2023-01-02T07:08:43.125Z,101497.38
2023-01-02T07:11:14.294Z,101487.81
2023-01-02T07:13:42.854Z,101497.53
2023-01-02T07:16:11.622Z,101497.63
2023-01-02T07:18:39.686Z,101520.44
2023-01-02T07:21:08.169Z,101523.97
2023-01-02T07:23:36.364Z,101534.56
2023-01-02T07:26:05.073Z,101535.50
2023-01-02T07:28:34.624Z,101541.53
2023-01-02T07:31:03.283Z,101545.72
2023-01-02T07:33:32.007Z,101549.84
2023-01-02T07:36:00.161Z,101556.72
2023-01-02T07:38:28.187Z,101561.97
2023-01-02T07:40:56.216Z,101559.31
2023-01-02T07:43:24.235Z,101576.16
2023-01-02T07:45:53.718Z,101576.19
2023-01-02T07:48:21.806Z,101580.81
2023-01-02T07:50:49.819Z,101586.22
2023-01-02T07:53:17.723Z,101589.25
2023-01-02T07:55:45.783Z,101604.22
2023-01-02T07:58:13.760Z,101607.09
2023-01-02T08:00:41.853Z,101614.34
2023-01-02T08:03:11.205Z,101600.66
2023-01-02T08:05:39.340Z,101577.25
2023-01-02T08:08:07.979Z,101617.66
2023-01-02T08:10:37.179Z,101627.44
2023-01-02T08:13:05.237Z,101638.16
2023-01-02T08:15:33.165Z,101649.72
2023-01-02T08:18:01.168Z,101655.09
2023-01-02T08:20:30.504Z,101654.31
2023-01-02T08:22:58.713Z,101669.50
2023-01-02T08:25:26.729Z,101675.72
2023-01-02T08:27:55.053Z,101676.75
2023-01-02T08:30:23.075Z,101685.69
2023-01-02T08:32:51.060Z,101683.97
2023-01-02T08:35:34.301Z,101692.84
2023-01-02T08:38:07.140Z,101681.53
2023-01-02T08:40:37.457Z,101699.88
2023-01-02T08:43:05.399Z,101696.34
2023-01-02T08:45:33.359Z,101702.56
2023-01-02T08:48:01.416Z,101707.84
2023-01-02T08:50:49.302Z,101709.75
2023-01-02T08:53:18.836Z,101716.66
2023-01-02T08:55:46.794Z,101733.44
2023-01-02T08:58:14.695Z,101730.09
2023-01-02T09:00:42.713Z,101727.56
2023-01-02T09:03:10.695Z,101744.31
2023-01-02T09:05:38.652Z,101751.50
2023-01-02T09:08:06.684Z,101766.56
2023-01-02T09:10:35.977Z,101755.06
2023-01-02T09:13:03.950Z,101769.09
2023-01-02T09:15:32.539Z,101764.59
2023-01-02T09:18:00.590Z,101779.47
2023-01-02T09:20:28.463Z,101781.09
2023-01-02T09:22:56.507Z,101787.19
2023-01-02T09:25:24.772Z,101797.63
2023-01-02T09:27:54.197Z,101794.03
2023-01-02T09:30:22.127Z,101794.94
2023-01-02T09:32:50.977Z,101792.38
2023-01-02T09:35:20.902Z,101790.72
2023-01-02T09:37:48.802Z,101803.00
2023-01-02T09:40:16.775Z,101810.97
2023-01-02T09:42:44.724Z,101811.00
2023-01-02T09:45:14.387Z,101816.44
2023-01-02T09:47:42.379Z,101811.22
2023-01-02T09:50:12.393Z,101819.25
2023-01-02T09:52:41.821Z,101830.75
2023-01-02T09:55:15.954Z,101827.41
2023-01-02T09:57:46.914Z,101843.25
2023-01-02T10:00:18.100Z,101846.69
2023-01-02T10:03:00.408Z,101856.31
2023-01-02T10:05:51.544Z,101830.94
2023-01-02T10:08:29.556Z,101860.50
2023-01-02T10:11:05.864Z,101866.50
2023-01-02T10:14:08.909Z,101880.44
2023-01-02T10:16:26.879Z,101868.81
2023-01-02T10:18:55.631Z,101870.25
2023-01-02T10:21:25.986Z,101872.69
2023-01-02T10:23:55.887Z,101882.16
2023-01-02T10:26:25.248Z,101883.72
2023-01-02T10:28:55.552Z,101879.09
2023-01-02T10:31:26.343Z,101867.59
2023-01-02T10:33:57.239Z,101881.50
2023-01-02T10:36:27.674Z,101882.41
2023-01-02T10:38:56.760Z,101888.13
2023-01-02T10:41:24.675Z,101889.97
2023-01-02T10:43:54.780Z,101901.38
2023-01-02T10:46:24.270Z,101897.00
2023-01-02T10:48:52.528Z,101897.72
2023-01-02T10:51:20.521Z,101900.88
2023-01-02T10:54:03.387Z,101892.03
2023-01-02T10:56:32.059Z,101891.50
2023-01-02T10:59:00.083Z,101898.97
2023-01-02T11:01:29.599Z,101896.63
2023-01-02T11:04:13.855Z,101893.94
2023-01-02T11:06:53.177Z,101891.47
2023-01-02T11:09:22.444Z,101895.94
2023-01-02T11:11:51.028Z,101894.47
2023-01-02T11:14:22.212Z,101899.38
2023-01-02T11:16:51.593Z,101899.75
2023-01-02T11:19:27.421Z,101904.53
2023-01-02T11:21:57.562Z,101901.31
2023-01-02T11:24:28.534Z,101895.47
2023-01-02T11:26:56.809Z,101898.53
2023-01-02T11:29:32.848Z,101904.03
2023-01-02T11:32:02.980Z,101910.59
2023-01-02T11:34:34.518Z,101901.19
2023-01-02T11:37:07.836Z,101902.47
2023-01-02T11:39:36.040Z,101901.81
2023-01-02T11:42:34.900Z,101905.00
2023-01-02T11:45:08.217Z,101898.66
2023-01-02T11:47:38.662Z,101908.38
2023-01-02T11:50:07.349Z,101916.41
2023-01-02T11:52:41.326Z,101912.31
2023-01-02T11:55:17.711Z,101913.41
2023-01-02T11:57:48.824Z,101927.00
2023-01-02T12:00:18.237Z,101931.22
2023-01-02T12:02:50.831Z,101935.41
2023-01-02T12:05:23.408Z,101926.94
2023-01-02T12:07:55.711Z,101932.97
2023-01-02T12:10:38.964Z,101944.72
2023-01-02T12:13:15.550Z,101949.59
2023-01-02T12:16:08.939Z,101950.88
2023-01-02T12:19:05.564Z,101940.09
2023-01-02T12:21:34.925Z,101948.53
2023-01-02T12:24:22.120Z,101950.47
2023-01-02T12:26:52.181Z,101946.22
2023-01-02T12:29:47.177Z,101961.19
2023-01-02T12:32:49.219Z,101958.84
2023-01-02T12:35:50.318Z,101943.09
2023-01-02T12:38:23.044Z,101950.03
2023-01-02T12:41:03.430Z,101951.19
2023-01-02T12:44:00.563Z,101952.16
2023-01-02T12:46:40.473Z,101951.88
2023-01-02T12:49:18.667Z,101947.09
2023-01-02T12:51:50.746Z,101942.66
2023-01-02T12:54:39.636Z,101943.03
2023-01-02T12:57:11.804Z,101954.47
2023-01-02T12:59:57.236Z,101944.97
2023-01-02T13:02:42.428Z,101951.50
2023-01-02T13:05:13.706Z,101945.25
2023-01-02T13:07:44.545Z,101955.75
2023-01-02T13:10:16.775Z,101951.44
2023-01-02T13:12:44.805Z,101955.81
2023-01-02T13:15:18.112Z,101951.28
2023-01-02T13:17:51.552Z,101955.25
2023-01-02T13:20:24.966Z,101952.47
2023-01-02T13:22:58.900Z,101963.25
2023-01-02T13:25:26.902Z,101960.94
2023-01-02T13:27:55.179Z,101961.69
2023-01-02T13:30:48.179Z,101949.84
2023-01-02T13:33:22.334Z,101966.63
2023-01-02T13:35:50.581Z,101965.75
2023-01-02T13:38:19.910Z,101949.94
2023-01-02T13:40:48.542Z,101960.09
2023-01-02T13:43:18.058Z,101945.59
2023-01-02T13:45:46.989Z,101948.81
2023-01-02T13:48:20.778Z,101948.78
2023-01-02T13:50:48.857Z,101956.03
2023-01-02T13:53:31.086Z,101952.09
2023-01-02T13:56:04.893Z,101945.47
2023-01-02T13:58:49.192Z,101968.31
2023-01-02T14:01:42.893Z,101959.88
2023-01-02T14:04:39.929Z,101954.75
2023-01-02T14:07:43.136Z,101971.03
2023-01-02T14:10:31.159Z,101977.50
2023-01-02T14:13:01.523Z,101969.41
2023-01-02T14:15:29.636Z,101966.59
2023-01-02T14:18:03.991Z,101981.56
2023-01-02T14:20:32.531Z,101985.00
2023-01-02T14:23:02.167Z,101984.38
2023-01-02T14:25:31.893Z,101986.06
2023-01-02T14:28:00.487Z,101974.25
2023-01-02T14:30:32.629Z,101977.53
2023-01-02T14:33:00.948Z,101980.72
2023-01-02T14:35:31.855Z,101984.91
2023-01-02T14:38:08.962Z,101984.50
2023-01-02T14:40:39.565Z,101981.19
2023-01-02T14:43:28.276Z,101989.41
2023-01-02T14:45:58.594Z,101986.47
2023-01-02T14:48:32.922Z,101984.19
2023-01-02T14:51:03.398Z,101985.56
2023-01-02T14:53:32.609Z,101978.78
2023-01-02T14:56:03.764Z,101986.31
2023-01-02T14:58:36.305Z,101991.75
2023-01-02T15:01:04.819Z,102000.50
2023-01-02T15:03:34.626Z,102004.25
2023-01-02T15:06:05.033Z,102001.22
2023-01-02T15:08:38.658Z,102004.81
2023-01-02T15:11:35.128Z,101969.34
2023-01-02T15:14:05.093Z,102011.13
2023-01-02T15:16:35.050Z,102019.06
2023-01-02T15:19:03.632Z,102017.81
2023-01-02T15:21:31.654Z,102015.81
2023-01-02T15:24:02.014Z,102018.94
2023-01-02T15:26:35.162Z,102016.06
2023-01-02T15:29:04.332Z,102032.97
2023-01-02T15:31:32.372Z,102025.31
2023-01-02T15:34:01.121Z,102034.94
2023-01-02T15:36:34.130Z,102029.38
2023-01-02T15:39:06.850Z,102017.63
2023-01-02T15:41:41.408Z,102020.66
2023-01-02T15:44:28.952Z,102013.34
2023-01-02T15:46:57.470Z,102021.69
2023-01-02T15:49:25.386Z,102021.25
2023-01-02T15:51:55.061Z,102022.59
2023-01-02T15:54:23.080Z,102028.41
2023-01-02T15:56:52.747Z,102030.66
2023-01-02T15:59:28.886Z,102033.66
2023-01-02T16:01:56.990Z,102036.72
2023-01-02T16:04:26.032Z,102034.47
2023-01-02T16:06:54.215Z,102042.84
2023-01-02T16:09:24.825Z,102036.22
2023-01-02T16:11:54.886Z,102046.25
2023-01-02T16:14:24.371Z,102038.53
2023-01-02T16:16:53.841Z,102038.72
2023-01-02T16:19:24.781Z,102042.53
2023-01-02T16:21:53.520Z,102042.94
2023-01-02T16:24:22.099Z,102031.56
2023-01-02T16:26:50.119Z,102027.47
2023-01-02T16:29:20.064Z,102033.88
2023-01-02T16:31:56.493Z,102005.44
2023-01-02T16:34:29.002Z,102039.78
2023-01-02T16:37:31.469Z,102038.41
2023-01-02T16:39:59.540Z,102043.25
2023-01-02T16:42:37.954Z,102038.22
2023-01-02T16:45:08.623Z,102052.50
2023-01-02T16:47:38.817Z,102048.34
2023-01-02T16:50:08.235Z,102027.59
2023-01-02T16:52:37.270Z,102044.28
2023-01-02T16:55:06.185Z,102054.13
2023-01-02T16:57:34.239Z,102066.59
2023-01-02T17:00:02.622Z,102064.94
2023-01-02T17:02:32.181Z,102061.50
2023-01-02T17:05:00.351Z,102072.22
2023-01-02T17:07:28.367Z,102070.56
2023-01-02T17:09:56.318Z,102067.16
2023-01-02T17:12:24.326Z,102078.72
2023-01-02T17:14:52.355Z,102075.28
2023-01-02T17:17:20.489Z,102085.13
2023-01-02T17:19:49.895Z,102087.88
2023-01-02T17:22:17.941Z,102082.66
2023-01-02T17:24:45.886Z,102079.19
2023-01-02T17:27:13.793Z,102077.53
2023-01-02T17:29:42.575Z,102086.41
2023-01-02T17:32:10.529Z,102084.72
2023-01-02T17:34:38.507Z,102083.91
2023-01-02T17:37:08.023Z,102092.78
2023-01-02T17:39:36.065Z,102099.06
2023-01-02T17:42:04.081Z,102095.59
2023-01-02T17:44:32.123Z,102103.59
2023-01-02T17:49:48.058Z,102095.78
2023-01-02T17:52:17.371Z,102094.09
2023-01-02T17:54:48.581Z,102106.50
2023-01-02T17:57:20.890Z,102102.16
2023-01-02T17:59:48.877Z,102097.81
2023-01-02T18:02:17.574Z,102084.69
2023-01-02T18:04:52.637Z,102102.25
2023-01-02T18:07:24.394Z,102099.69
2023-01-02T18:10:07.975Z,102099.75
2023-01-02T18:12:38.082Z,102097.19
2023-01-02T18:15:11.759Z,102113.06
2023-01-02T18:17:39.886Z,102113.97
2023-01-02T18:20:14.839Z,102115.75
2023-01-02T18:22:48.870Z,102119.34
2023-01-02T18:25:20.199Z,102096.53
2023-01-02T18:27:48.529Z,102118.47
2023-01-02T18:30:19.639Z,102130.81
2023-01-02T18:32:47.648Z,102127.31
2023-01-02T18:35:54.898Z,102118.56
2023-01-02T18:38:15.613Z,102133.53
2023-01-02T18:40:43.626Z,102128.28
2023-01-02T18:43:19.368Z,102121.22
2023-01-02T18:45:48.198Z,102125.63
2023-01-02T18:48:17.714Z,102124.75
2023-01-02T18:50:46.554Z,102117.78
2023-01-02T18:53:20.582Z,102119.50
2023-01-02T18:55:48.677Z,102120.44
2023-01-02T18:58:40.933Z,102115.97
2023-01-02T19:01:20.305Z,102110.75
2023-01-02T19:03:49.317Z,102129.22
2023-01-02T19:06:18.431Z,102125.69
2023-01-02T19:08:47.932Z,102116.00
2023-01-02T19:11:31.705Z,102124.78
2023-01-02T19:13:59.625Z,102119.41
2023-01-02T19:16:27.757Z,102114.97
2023-01-02T19:18:56.296Z,102123.69
2023-01-02T19:21:27.854Z,102112.22
2023-01-02T19:23:59.270Z,102112.19
2023-01-02T19:26:30.651Z,102118.44
2023-01-02T19:29:00.123Z,102116.69
2023-01-02T19:31:31.793Z,102116.69
2023-01-02T19:34:01.547Z,102097.41
2023-01-02T19:36:36.738Z,102107.03
2023-01-02T19:39:19.550Z,102115.91
2023-01-02T19:42:05.003Z,102103.59
2023-01-02T19:44:33.084Z,102094.84
2023-01-02T19:47:01.033Z,102098.41
2023-01-02T19:49:29.063Z,102106.25
2023-01-02T19:51:56.977Z,102111.44
2023-01-02T19:54:26.399Z,102107.88
2023-01-02T19:56:54.621Z,102110.44
2023-01-02T19:59:22.852Z,102106.78
2023-01-02T20:01:51.050Z,102108.41
2023-01-02T20:04:19.213Z,102107.44
2023-01-02T20:06:47.143Z,102109.09
2023-01-02T20:09:16.456Z,102108.06
2023-01-02T20:12:07.559Z,102108.00
2023-01-02T20:14:38.198Z,102096.53
2023-01-02T20:17:06.343Z,102106.16
2023-01-02T20:19:34.231Z,102106.97
2023-01-02T20:22:02.250Z,102109.56
2023-01-02T20:24:30.370Z,102114.84
2023-01-02T20:27:00.443Z,102106.00
2023-01-02T20:29:28.542Z,102095.38
2023-01-02T20:31:59.191Z,102086.56
2023-01-02T20:34:27.216Z,102082.00
2023-01-02T20:36:55.171Z,102097.84
2023-01-02T20:39:23.138Z,102089.88
2023-01-02T20:41:51.076Z,102095.06
2023-01-02T20:44:20.480Z,102092.38
2023-01-02T20:46:48.716Z,102099.41
2023-01-02T20:49:17.658Z,102094.91
2023-01-02T20:51:52.040Z,102101.00
2023-01-02T20:54:20.012Z,102092.13
2023-01-02T20:56:47.960Z,102085.00
2023-01-02T20:59:15.934Z,102084.94
2023-01-02T21:01:45.399Z,102082.25
2023-01-02T21:04:13.497Z,102079.59
2023-01-02T21:06:42.110Z,102082.25
2023-01-02T21:09:10.076Z,102082.19
2023-01-02T21:11:38.190Z,102080.44
2023-01-02T21:14:06.088Z,102084.81
2023-01-02T21:16:34.263Z,102080.41
2023-01-02T21:19:03.790Z,102078.66
2023-01-02T21:21:31.756Z,102076.03
2023-01-02T21:23:59.732Z,102071.56
2023-01-02T21:26:27.850Z,102069.78
2023-01-02T21:28:55.813Z,102067.16
2023-01-02T21:31:23.784Z,102066.25
2023-01-02T21:33:51.797Z,102060.19
2023-01-02T21:36:21.146Z,102032.22
2023-01-02T21:38:49.089Z,102061.03
2023-01-02T21:41:34.424Z,102054.03
2023-01-02T21:44:02.318Z,102061.97
2023-01-02T21:46:30.329Z,102053.22
2023-01-02T21:48:58.349Z,102047.97
2023-01-02T21:51:32.726Z,102051.59
2023-01-02T21:54:01.038Z,102059.59
2023-01-02T21:56:29.350Z,102050.84
2023-01-02T21:58:57.721Z,102050.00
2023-01-02T22:01:26.123Z,102048.38
2023-01-02T22:03:57.262Z,102058.97
2023-01-02T22:06:25.792Z,102057.28
2023-01-02T22:08:55.090Z,102057.28
2023-01-02T22:11:40.332Z,102063.50
2023-01-02T22:14:08.257Z,102056.50
2023-01-02T22:16:36.229Z,102050.44
2023-01-02T22:19:04.252Z,102059.22
2023-01-02T22:21:32.420Z,102063.66
2023-01-02T22:24:01.809Z,102063.66
2023-01-02T22:26:29.749Z,102050.41
2023-01-02T22:28:57.713Z,102041.63
2023-01-02T22:31:25.862Z,102049.56
2023-01-02T22:33:54.963Z,102046.06
2023-01-02T22:36:22.890Z,102054.03
2023-01-02T22:39:26.038Z,102043.50
2023-01-02T22:41:41.269Z,102042.66
2023-01-02T22:44:13.427Z,102045.34
2023-01-02T22:46:42.748Z,102048.88
2023-01-02T22:49:11.487Z,102045.38
2023-01-02T22:52:06.125Z,102056.00
2023-01-02T22:54:27.306Z,102058.69
2023-01-02T22:56:56.626Z,102056.88
2023-01-02T22:59:24.529Z,102041.88
2023-01-02T23:01:52.660Z,102048.91
2023-01-02T23:04:21.734Z,102041.81
2023-01-02T23:07:14.094Z,102045.28
2023-01-02T23:09:37.677Z,102043.50
2023-01-02T23:12:07.448Z,102047.06
2023-01-02T23:14:35.386Z,102047.94
2023-01-02T23:17:20.759Z,102054.19
2023-01-02T23:19:48.767Z,102052.44
2023-01-02T23:22:16.700Z,102054.25
2023-01-02T23:24:44.621Z,102051.63
2023-01-02T23:27:14.036Z,102055.13
2023-01-02T23:29:41.998Z,102062.22
2023-01-02T23:32:11.263Z,102059.59
2023-01-02T23:34:39.286Z,102060.41
2023-01-02T23:37:07.338Z,102067.47
2023-01-02T23:39:35.265Z,102026.25
2023-01-02T23:42:03.517Z,102049.00
2023-01-02T23:44:32.826Z,102062.13
2023-01-02T23:47:05.479Z,102063.91
2023-01-02T23:49:36.819Z,102068.34
2023-01-02T23:52:05.579Z,102050.72
2023-01-02T23:54:33.652Z,102052.38
2023-01-02T23:57:01.569Z,102051.53
2023-01-02T23:59:29.509Z,102049.75
